Terminal Aerodrome Forecast
Issued by NWS

Home | Current Version | Previous Version | Text Only | Print | Product List | Glossary On
Versions: 1 2 3 4 5 6 7 8 9 10 11 12 13 14 15 16 17
000
FTUS42 KILM 020521
TAFCRE
TAF
KCRE 020521Z 0206/0306 20004KT P6SM SCT020 SCT050 BKN250
      TEMPO 0207/0211 5SM BR SCT007
     FM021200 22007KT P6SM SCT025
     FM021800 20008KT P6SM VCTS SCT025 BKN050CB BKN100
     FM030000 19007KT P6SM SCT025 BKN050 BKN100=

USA.gov is the U.S. government's official web portal to all federal, state and local government web resources and services.